createdAt,value
2018-02-22T00:00:14.214Z,45.00
2018-02-22T00:02:42.180Z,45.00
2018-02-22T00:05:11.212Z,45.00
2018-02-22T00:07:39.190Z,45.00
2018-02-22T00:10:07.571Z,44.90
2018-02-22T00:12:36.673Z,45.10
2018-02-22T00:15:04.276Z,45.00
2018-02-22T00:17:33.392Z,45.30
2018-02-22T00:20:02.105Z,45.00
2018-02-22T00:22:30.514Z,44.70
2018-02-22T00:24:58.897Z,44.50
2018-02-22T00:27:27.228Z,44.20
2018-02-22T00:29:55.584Z,44.30
2018-02-22T00:32:27.713Z,44.00
2018-02-22T00:34:55.731Z,44.00
2018-02-22T00:37:23.318Z,44.10
2018-02-22T00:39:51.789Z,44.10
2018-02-22T00:42:20.193Z,44.20
2018-02-22T00:44:48.539Z,44.50
2018-02-22T00:47:16.913Z,45.00
2018-02-22T00:49:45.292Z,45.20
2018-02-22T00:52:13.649Z,45.60
2018-02-22T00:54:42.086Z,45.30
2018-02-22T00:57:10.061Z,45.10
2018-02-22T00:59:38.434Z,45.40
2018-02-22T01:02:06.765Z,46.50
2018-02-22T01:04:35.135Z,45.40
2018-02-22T01:07:03.477Z,44.20
2018-02-22T01:09:31.850Z,44.70
2018-02-22T01:12:00.228Z,44.60
2018-02-22T01:14:30.299Z,44.30
2018-02-22T01:16:59.407Z,45.00
2018-02-22T01:19:27.005Z,44.40
2018-02-22T01:21:56.333Z,44.20
2018-02-22T01:24:25.454Z,45.30
2018-02-22T01:26:54.052Z,44.80
2018-02-22T01:29:21.665Z,45.40
2018-02-22T01:31:50.029Z,45.30
2018-02-22T01:34:18.457Z,45.60
2018-02-22T01:36:46.472Z,45.90
2018-02-22T01:39:14.842Z,46.10
2018-02-22T01:41:43.209Z,46.20
2018-02-22T01:44:11.596Z,46.10
2018-02-22T01:46:41.145Z,45.90
2018-02-22T01:49:09.501Z,45.90
2018-02-22T01:51:37.092Z,45.30
2018-02-22T01:54:05.078Z,45.40
2018-02-22T01:56:33.456Z,45.70
2018-02-22T01:59:01.834Z,45.70
2018-02-22T02:01:30.198Z,45.30
2018-02-22T02:03:58.649Z,45.60
2018-02-22T02:06:26.636Z,46.10
2018-02-22T02:08:55.010Z,45.80
2018-02-22T02:11:23.374Z,46.00
2018-02-22T02:13:51.704Z,46.20
2018-02-22T02:16:20.064Z,46.60
2018-02-22T02:18:48.406Z,46.50
2018-02-22T02:21:16.781Z,46.50
2018-02-22T02:23:45.119Z,46.00
2018-02-22T02:26:13.510Z,45.40
2018-02-22T02:28:41.549Z,44.90
2018-02-22T02:31:09.916Z,45.70
2018-02-22T02:33:37.497Z,45.20
2018-02-22T02:36:05.543Z,44.90
2018-02-22T02:38:33.900Z,45.00
2018-02-22T02:41:02.252Z,45.60
2018-02-22T02:43:30.598Z,46.20
2018-02-22T02:45:59.008Z,46.10
2018-02-22T02:48:28.108Z,46.20
2018-02-22T02:50:56.550Z,46.60
2018-02-22T02:53:24.176Z,46.30
2018-02-22T02:55:52.157Z,45.80
2018-02-22T02:58:20.490Z,45.50
2018-02-22T03:00:48.860Z,46.00
2018-02-22T03:03:17.413Z,46.20
2018-02-22T03:05:45.789Z,47.20
2018-02-22T03:08:14.117Z,47.10
2018-02-22T03:10:43.416Z,46.80
2018-02-22T03:13:11.005Z,46.40
2018-02-22T03:15:38.984Z,46.30
2018-02-22T03:18:07.366Z,45.90
2018-02-22T03:20:35.701Z,46.00
2018-02-22T03:23:07.557Z,45.80
2018-02-22T03:25:36.013Z,46.30
2018-02-22T03:28:03.623Z,46.40
2018-02-22T03:30:31.979Z,46.10
2018-02-22T03:33:00.374Z,46.40
2018-02-22T03:35:28.793Z,46.80
2018-02-22T03:37:56.849Z,46.90
2018-02-22T03:40:25.186Z,46.90
2018-02-22T03:42:53.568Z,46.30
2018-02-22T03:45:23.297Z,46.30
2018-02-22T03:47:51.800Z,45.70
2018-02-22T03:50:20.241Z,45.90
2018-02-22T03:52:48.601Z,45.30
2018-02-22T03:55:16.593Z,45.50
2018-02-22T03:57:44.988Z,46.00
2018-02-22T04:00:12.569Z,45.90
2018-02-22T04:02:40.677Z,45.60
2018-02-22T04:05:08.835Z,45.60
2018-02-22T04:07:37.426Z,45.90
2018-02-22T04:10:05.401Z,46.20
2018-02-22T04:12:33.802Z,46.10
2018-02-22T04:15:02.171Z,46.00
2018-02-22T04:17:31.318Z,46.20
2018-02-22T04:19:58.930Z,45.60
2018-02-22T04:22:27.296Z,45.60
2018-02-22T04:24:55.649Z,45.70
2018-02-22T04:27:24.743Z,46.30
2018-02-22T04:29:53.310Z,45.40
2018-02-22T04:32:20.933Z,45.30
2018-02-22T04:34:48.908Z,46.00
2018-02-22T04:37:17.283Z,45.80
2018-02-22T04:39:45.706Z,45.80
2018-02-22T04:42:14.057Z,45.50
2018-02-22T04:44:42.456Z,45.30
2018-02-22T04:47:10.831Z,45.70
2018-02-22T04:49:38.907Z,46.30
2018-02-22T04:52:07.772Z,47.40
2018-02-22T04:54:35.754Z,47.40
2018-02-22T04:57:04.164Z,47.20
2018-02-22T04:59:32.576Z,47.30
2018-02-22T05:02:01.439Z,47.40
2018-02-22T05:04:30.394Z,47.20
2018-02-22T05:06:58.786Z,44.70
2018-02-22T05:09:27.191Z,47.10
2018-02-22T05:11:55.571Z,46.50
2018-02-22T05:14:23.921Z,46.20
2018-02-22T05:16:52.277Z,46.30
2018-02-22T05:19:20.655Z,45.80
2018-02-22T05:21:49.013Z,46.40
2018-02-22T05:24:17.426Z,46.30
2018-02-22T05:26:46.638Z,46.80
2018-02-22T05:29:14.285Z,46.90
2018-02-22T05:31:42.252Z,47.30
2018-02-22T05:34:10.677Z,46.00
2018-02-22T05:36:39.016Z,46.50
2018-02-22T05:39:08.857Z,46.20
2018-02-22T05:41:37.254Z,45.80
2018-02-22T05:44:06.362Z,47.00
2018-02-22T05:46:33.954Z,47.20
2018-02-22T05:49:02.315Z,47.20
2018-02-22T05:51:30.660Z,46.70
2018-02-22T05:53:59.024Z,46.20
2018-02-22T05:56:27.011Z,45.60
2018-02-22T05:58:55.401Z,46.20
2018-02-22T06:01:24.237Z,46.80
2018-02-22T06:03:52.320Z,46.80
2018-02-22T06:06:20.681Z,47.20
2018-02-22T06:08:49.066Z,47.00
2018-02-22T06:11:17.430Z,46.50
2018-02-22T06:13:45.813Z,46.20
2018-02-22T06:16:14.140Z,46.20
2018-02-22T06:18:42.506Z,47.20
2018-02-22T06:21:10.540Z,47.10
2018-02-22T06:23:38.923Z,47.00
2018-02-22T06:26:07.274Z,46.40
2018-02-22T06:28:42.522Z,46.70
2018-02-22T06:31:11.184Z,46.10
2018-02-22T06:33:39.611Z,44.20
2018-02-22T06:36:08.020Z,47.30
2018-02-22T06:38:36.384Z,47.40
2018-02-22T06:41:04.735Z,48.00
2018-02-22T06:43:33.116Z,47.90
2018-02-22T06:46:01.867Z,47.90
2018-02-22T06:48:29.862Z,47.40
2018-02-22T06:50:57.983Z,47.80
2018-02-22T06:53:26.702Z,48.20
2018-02-22T06:55:54.692Z,47.30
2018-02-22T06:58:23.100Z,46.80
2018-02-22T07:00:51.460Z,47.40
2018-02-22T07:03:19.831Z,75.90
2018-02-22T07:05:48.183Z,58.40
2018-02-22T07:08:16.550Z,48.50
2018-02-22T07:10:45.034Z,46.20
2018-02-22T07:13:13.027Z,41.60
2018-02-22T07:15:41.404Z,40.80
2018-02-22T07:18:10.577Z,41.10
2018-02-22T07:20:38.581Z,38.70
2018-02-22T07:23:16.650Z,39.20
2018-02-22T07:25:34.951Z,37.10
2018-02-22T07:28:03.295Z,37.80
2018-02-22T07:30:30.983Z,37.40
2018-02-22T07:32:59.377Z,37.60
2018-02-22T07:35:27.766Z,38.80
2018-02-22T07:37:55.347Z,38.70
2018-02-22T07:40:23.700Z,37.90
2018-02-22T07:42:51.839Z,37.30
2018-02-22T07:45:20.204Z,37.50
2018-02-22T07:47:48.562Z,37.60
2018-02-22T07:50:16.905Z,37.20
2018-02-22T07:52:45.253Z,36.30
2018-02-22T07:55:12.852Z,38.00
2018-02-22T07:57:40.851Z,37.60
2018-02-22T08:00:09.281Z,37.50
2018-02-22T08:02:38.340Z,37.80
2018-02-22T08:05:06.040Z,36.20
2018-02-22T08:07:34.025Z,37.60
2018-02-22T08:10:03.201Z,37.70
2018-02-22T08:12:31.580Z,37.70
2018-02-22T08:14:59.955Z,37.90
2018-02-22T08:17:27.680Z,36.70
2018-02-22T08:19:56.865Z,37.00
2018-02-22T08:22:24.455Z,36.50
2018-02-22T08:24:53.628Z,37.20
2018-02-22T08:27:21.208Z,36.70
2018-02-22T08:29:49.549Z,36.90
2018-02-22T08:32:18.718Z,36.80
2018-02-22T08:34:46.363Z,35.70
2018-02-22T08:37:14.347Z,37.40
2018-02-22T08:39:42.692Z,37.00
2018-02-22T08:42:11.103Z,35.90
2018-02-22T08:44:40.736Z,35.90
2018-02-22T08:47:09.037Z,34.70
2018-02-22T08:49:36.632Z,34.00
2018-02-22T08:52:04.599Z,33.80
2018-02-22T08:54:33.336Z,33.30
2018-02-22T08:57:01.330Z,33.30
2018-02-22T08:59:29.687Z,33.20
2018-02-22T09:01:58.029Z,33.20
2018-02-22T09:04:26.407Z,33.10
2018-02-22T09:06:54.885Z,33.10
2018-02-22T09:09:22.878Z,33.10
2018-02-22T09:11:51.709Z,33.40
2018-02-22T09:14:20.575Z,33.50
2018-02-22T09:16:48.284Z,33.30
2018-02-22T09:19:16.238Z,33.90
2018-02-22T09:21:44.640Z,36.80
2018-02-22T09:24:13.765Z,36.40
2018-02-22T09:26:41.732Z,34.80
2018-02-22T09:29:09.745Z,34.20
2018-02-22T09:31:38.114Z,34.90
2018-02-22T09:34:06.080Z,36.60
2018-02-22T09:36:33.732Z,36.40
2018-02-22T09:39:01.652Z,36.00
2018-02-22T09:41:30.004Z,36.80
2018-02-22T09:43:58.341Z,35.80
2018-02-22T09:46:26.684Z,35.30
2018-02-22T09:48:55.039Z,35.40
2018-02-22T09:51:23.404Z,36.30
2018-02-22T09:53:54.114Z,35.60
2018-02-22T09:56:21.700Z,34.30
2018-02-22T09:58:50.110Z,34.00
2018-02-22T10:01:18.112Z,34.00
2018-02-22T10:03:47.211Z,34.60
2018-02-22T10:06:15.085Z,33.60
2018-02-22T10:08:43.489Z,33.20
2018-02-22T10:11:11.471Z,34.20
2018-02-22T10:13:39.808Z,33.90
2018-02-22T10:16:08.908Z,35.40
2018-02-22T10:18:36.497Z,34.50
2018-02-22T10:21:04.836Z,34.80
2018-02-22T10:23:32.448Z,34.90
2018-02-22T10:26:00.460Z,34.00
2018-02-22T10:28:28.780Z,33.30
2018-02-22T10:30:57.124Z,32.60
2018-02-22T10:33:26.210Z,32.90
2018-02-22T10:35:53.816Z,33.50
2018-02-22T10:38:22.194Z,32.30
2018-02-22T10:40:50.572Z,32.60
2018-02-22T10:43:18.904Z,31.70
2018-02-22T10:45:47.248Z,33.00
2018-02-22T10:48:15.586Z,32.70
2018-02-22T10:50:43.930Z,33.50
2018-02-22T10:53:12.256Z,33.50
2018-02-22T10:55:40.626Z,33.10
2018-02-22T10:58:08.969Z,32.50
2018-02-22T11:00:43.163Z,31.70
2018-02-22T11:03:11.905Z,31.80
2018-02-22T11:05:40.312Z,31.80
2018-02-22T11:08:07.877Z,31.60
2018-02-22T11:10:36.229Z,31.80
2018-02-22T11:13:04.207Z,30.80
2018-02-22T11:15:31.840Z,31.10
2018-02-22T11:17:59.793Z,31.90
2018-02-22T11:20:28.142Z,32.30
2018-02-22T11:22:56.520Z,32.40
2018-02-22T11:25:24.866Z,33.00
2018-02-22T11:27:53.233Z,33.70
2018-02-22T11:30:21.617Z,32.40
2018-02-22T11:32:50.371Z,32.80
2018-02-22T11:35:18.352Z,31.00
2018-02-22T11:37:46.710Z,30.40
2018-02-22T11:40:15.036Z,31.30
2018-02-22T11:42:43.402Z,30.40
2018-02-22T11:45:11.737Z,30.00
2018-02-22T11:47:40.665Z,29.50
2018-02-22T11:50:08.226Z,30.30
2018-02-22T11:52:36.725Z,29.00
2018-02-22T11:55:05.118Z,30.00
2018-02-22T11:57:33.536Z,30.00
2018-02-22T12:00:01.888Z,29.80
2018-02-22T12:02:30.253Z,29.20
2018-02-22T12:04:58.216Z,29.40
2018-02-22T12:07:25.888Z,29.20
2018-02-22T12:09:53.869Z,27.40
2018-02-22T12:12:22.226Z,28.30
2018-02-22T12:14:50.604Z,29.70
2018-02-22T12:17:18.968Z,29.00
2018-02-22T12:19:47.324Z,32.90
2018-02-22T12:22:16.501Z,28.20
2018-02-22T12:24:44.092Z,30.10
2018-02-22T12:27:12.084Z,28.50
2018-02-22T12:29:39.667Z,26.80
2018-02-22T12:32:07.643Z,28.70
2018-02-22T12:34:35.288Z,24.70
2018-02-22T12:37:02.872Z,23.50
2018-02-22T12:39:31.148Z,24.40
2018-02-22T12:41:58.748Z,22.90
2018-02-22T12:44:27.135Z,24.10
2018-02-22T12:46:54.741Z,23.90
2018-02-22T12:49:22.308Z,24.30
2018-02-22T12:51:51.074Z,25.20
2018-02-22T12:54:18.652Z,24.20
2018-02-22T12:56:47.002Z,24.30
2018-02-22T12:59:15.016Z,25.30
2018-02-22T13:01:42.611Z,24.80
2018-02-22T13:04:10.593Z,25.50
2018-02-22T13:06:38.942Z,25.70
2018-02-22T13:09:08.008Z,26.10
2018-02-22T13:11:35.903Z,24.60
2018-02-22T13:14:03.937Z,23.00
2018-02-22T13:16:32.358Z,23.10
2018-02-22T13:19:01.451Z,24.40
2018-02-22T13:21:29.029Z,24.50
2018-02-22T13:23:57.410Z,25.80
2018-02-22T13:26:25.778Z,25.40
2018-02-22T13:28:53.777Z,25.00
2018-02-22T13:31:21.382Z,24.10
2018-02-22T13:34:01.942Z,24.90
2018-02-22T13:36:30.017Z,24.50
2018-02-22T13:39:06.268Z,24.00
2018-02-22T13:41:35.233Z,24.20
2018-02-22T13:44:15.430Z,23.90
2018-02-22T13:46:42.998Z,24.30
2018-02-22T13:49:23.529Z,23.90
2018-02-22T13:51:51.121Z,23.10
2018-02-22T13:54:19.141Z,23.40
2018-02-22T13:56:59.344Z,24.00
2018-02-22T13:59:27.403Z,23.90
2018-02-22T14:02:07.212Z,24.90
2018-02-22T14:04:35.647Z,25.30
2018-02-22T14:07:03.220Z,25.10
2018-02-22T14:09:31.617Z,24.00
2018-02-22T14:11:59.632Z,24.00
2018-02-22T14:14:27.997Z,23.50
2018-02-22T14:16:56.461Z,24.20
2018-02-22T14:19:24.170Z,27.40
2018-02-22T14:21:52.142Z,24.50
2018-02-22T14:24:20.786Z,23.30
2018-02-22T14:26:48.556Z,24.00
2018-02-22T14:29:16.925Z,23.40
2018-02-22T14:31:45.395Z,23.80
2018-02-22T14:34:13.389Z,23.80
2018-02-22T14:36:41.116Z,23.00
2018-02-22T14:39:08.742Z,22.80
2018-02-22T14:41:36.318Z,23.80
2018-02-22T14:44:04.308Z,23.10
2018-02-22T14:46:32.287Z,23.70
2018-02-22T14:48:59.914Z,24.50
2018-02-22T14:51:27.878Z,26.50
2018-02-22T14:53:56.256Z,27.80
2018-02-22T14:56:24.614Z,28.90
2018-02-22T14:58:52.963Z,29.80
2018-02-22T15:01:22.103Z,30.40
2018-02-22T15:03:49.715Z,29.50
2018-02-22T15:06:17.272Z,28.80
2018-02-22T15:08:44.869Z,29.20
2018-02-22T15:11:13.218Z,29.70
2018-02-22T15:13:41.044Z,28.90
2018-02-22T15:16:08.612Z,29.00
2018-02-22T15:18:36.701Z,29.00
2018-02-22T15:21:05.720Z,29.10
2018-02-22T15:23:33.543Z,29.50
2018-02-22T15:26:01.563Z,29.20
2018-02-22T15:28:29.923Z,29.50
2018-02-22T15:30:57.496Z,29.10
2018-02-22T15:33:25.520Z,29.50
2018-02-22T15:35:53.937Z,28.50
2018-02-22T15:38:21.944Z,27.40
2018-02-22T15:40:49.916Z,29.20
2018-02-22T15:43:17.540Z,29.50
2018-02-22T15:45:45.898Z,29.40
2018-02-22T15:48:14.367Z,29.80
2018-02-22T15:50:42.703Z,27.10
2018-02-22T15:53:11.060Z,29.10
2018-02-22T15:55:39.449Z,30.00
2018-02-22T15:58:07.800Z,29.70
2018-02-22T16:00:36.232Z,29.90
2018-02-22T16:03:04.596Z,29.70
2018-02-22T16:05:32.920Z,30.00
2018-02-22T16:08:02.010Z,31.30
2018-02-22T16:10:29.613Z,30.80
2018-02-22T16:12:57.941Z,31.70
2018-02-22T16:15:26.328Z,31.50
2018-02-22T16:17:54.313Z,31.40
2018-02-22T16:20:23.036Z,31.30
2018-02-22T16:22:51.505Z,30.30
2018-02-22T16:25:19.497Z,30.00
2018-02-22T16:27:47.859Z,29.90
2018-02-22T16:30:16.993Z,31.00
2018-02-22T16:32:44.586Z,30.90
2018-02-22T16:35:13.828Z,31.90
2018-02-22T16:37:41.385Z,31.30
2018-02-22T16:40:09.388Z,31.10
2018-02-22T16:42:36.958Z,32.40
2018-02-22T16:45:05.555Z,32.20
2018-02-22T16:47:33.537Z,31.40
2018-02-22T16:50:01.542Z,31.40
2018-02-22T16:52:29.918Z,33.00
2018-02-22T16:54:58.254Z,32.70
2018-02-22T16:57:26.608Z,33.10
2018-02-22T16:59:54.987Z,32.60
2018-02-22T17:02:23.305Z,32.80
2018-02-22T17:04:51.821Z,33.20
2018-02-22T17:07:20.533Z,33.40
2018-02-22T17:09:48.602Z,33.60
2018-02-22T17:12:17.084Z,33.20
2018-02-22T17:14:45.204Z,32.90
2018-02-22T17:17:13.653Z,33.20
2018-02-22T17:19:42.160Z,32.80
2018-02-22T17:22:10.167Z,32.40
2018-02-22T17:24:39.246Z,32.90
2018-02-22T17:27:13.363Z,33.30
2018-02-22T17:29:46.770Z,29.90
2018-02-22T17:32:18.212Z,32.60
2018-02-22T17:34:47.505Z,33.10
2018-02-22T17:37:15.522Z,33.00
2018-02-22T17:39:49.732Z,33.00
2018-02-22T17:42:17.948Z,32.50
2018-02-22T17:44:46.336Z,33.00
2018-02-22T17:47:14.709Z,32.20
2018-02-22T17:49:43.836Z,32.90
2018-02-22T17:52:12.160Z,32.30
2018-02-22T17:54:40.188Z,32.50
2018-02-22T17:57:08.961Z,33.60
2018-02-22T17:59:37.406Z,33.20
2018-02-22T18:02:05.752Z,32.90
2018-02-22T18:04:33.384Z,32.30
2018-02-22T18:07:01.439Z,33.00
2018-02-22T18:09:30.899Z,32.50
2018-02-22T18:11:58.879Z,32.60
2018-02-22T18:14:44.924Z,33.20
2018-02-22T18:17:13.510Z,32.60
2018-02-22T18:19:41.558Z,32.70
2018-02-22T18:22:10.731Z,34.60
2018-02-22T18:24:38.357Z,34.10
2018-02-22T18:27:07.065Z,34.40
2018-02-22T18:29:34.717Z,33.00
2018-02-22T18:32:03.104Z,33.60
2018-02-22T18:34:31.137Z,33.50
2018-02-22T18:36:58.766Z,33.20
2018-02-22T18:39:27.948Z,33.20
2018-02-22T18:41:56.993Z,32.80
2018-02-22T18:44:31.611Z,33.20
2018-02-22T18:47:02.653Z,33.60
2018-02-22T18:49:31.258Z,32.70
2018-02-22T18:51:59.624Z,32.70
2018-02-22T18:54:28.412Z,33.00
2018-02-22T18:56:56.805Z,32.80
2018-02-22T18:59:25.143Z,33.00
2018-02-22T19:01:53.576Z,33.50
2018-02-22T19:04:21.945Z,33.60
2018-02-22T19:06:50.746Z,33.30
2018-02-22T19:09:19.944Z,33.80
2018-02-22T19:11:48.510Z,33.20
2018-02-22T19:14:16.492Z,33.10
2018-02-22T19:16:44.921Z,33.20
2018-02-22T19:19:14.792Z,32.80
2018-02-22T19:21:44.054Z,32.70
2018-02-22T19:24:12.574Z,33.90
2018-02-22T19:26:40.199Z,34.30
2018-02-22T19:29:08.603Z,34.20
2018-02-22T19:31:36.724Z,33.80
2018-02-22T19:34:05.052Z,34.00
2018-02-22T19:36:33.579Z,34.10
2018-02-22T19:39:01.651Z,33.80
2018-02-22T19:41:30.029Z,33.80
2018-02-22T19:43:58.383Z,34.30
2018-02-22T19:46:26.764Z,34.00
2018-02-22T19:48:55.147Z,33.80
2018-02-22T19:51:23.574Z,32.80
2018-02-22T19:53:51.974Z,33.40
2018-02-22T19:56:20.823Z,33.60
2018-02-22T19:58:48.862Z,34.30
2018-02-22T20:01:17.540Z,34.20
2018-02-22T20:03:46.264Z,35.20
2018-02-22T20:06:14.284Z,35.10
2018-02-22T20:08:45.654Z,35.00
2018-02-22T20:11:15.015Z,35.00
2018-02-22T20:13:43.411Z,34.40
2018-02-22T20:16:12.178Z,35.20
2018-02-22T20:18:40.827Z,34.80
2018-02-22T20:21:08.447Z,34.90
2018-02-22T20:23:36.440Z,35.20
2018-02-22T20:26:04.115Z,34.70
2018-02-22T20:28:32.403Z,34.50
2018-02-22T20:31:03.138Z,34.10
2018-02-22T20:33:31.640Z,34.20
2018-02-22T20:36:00.733Z,34.50
2018-02-22T20:38:29.318Z,34.70
2018-02-22T20:40:57.714Z,35.60
2018-02-22T20:43:26.722Z,35.30
2018-02-22T20:45:54.865Z,35.80
2018-02-22T20:48:23.318Z,35.20
2018-02-22T20:50:55.376Z,35.30
2018-02-22T20:53:23.016Z,34.20
2018-02-22T20:55:51.742Z,35.60
2018-02-22T20:58:19.830Z,35.00
2018-02-22T21:00:47.930Z,34.90
2018-02-22T21:03:28.919Z,35.00
2018-02-22T21:05:57.237Z,35.10
2018-02-22T21:08:26.087Z,34.70
2018-02-22T21:10:54.948Z,34.50
2018-02-22T21:13:23.101Z,35.00
2018-02-22T21:15:51.360Z,35.40
2018-02-22T21:18:19.569Z,35.70
2018-02-22T21:20:47.946Z,35.70
2018-02-22T21:23:16.422Z,34.60
2018-02-22T21:25:44.888Z,34.80
2018-02-22T21:28:12.485Z,34.40
2018-02-22T21:30:40.895Z,34.60
2018-02-22T21:33:09.537Z,34.60
2018-02-22T21:35:37.506Z,34.40
2018-02-22T21:38:07.303Z,33.70
2018-02-22T21:40:36.743Z,36.10
2018-02-22T21:43:05.764Z,35.50
2018-02-22T21:45:34.389Z,35.50
2018-02-22T21:48:02.456Z,35.10
2018-02-22T21:50:30.562Z,34.70
2018-02-22T21:52:58.809Z,34.50
2018-02-22T21:55:27.882Z,34.50
2018-02-22T21:57:56.300Z,35.20
2018-02-22T22:00:24.624Z,35.70
2018-02-22T22:02:52.215Z,35.30
2018-02-22T22:05:20.637Z,35.20
2018-02-22T22:07:49.046Z,35.60
2018-02-22T22:10:17.399Z,36.20
2018-02-22T22:12:45.772Z,36.00
2018-02-22T22:15:14.167Z,36.20
2018-02-22T22:17:42.879Z,36.30
2018-02-22T22:20:11.365Z,36.00
2018-02-22T22:22:39.354Z,35.60
2018-02-22T22:25:07.562Z,35.60
2018-02-22T22:27:36.013Z,35.90
2018-02-22T22:30:04.489Z,35.40
2018-02-22T22:32:34.511Z,35.60
2018-02-22T22:35:02.510Z,35.70
2018-02-22T22:37:31.982Z,35.30
2018-02-22T22:40:00.701Z,35.60
2018-02-22T22:42:28.836Z,40.30
2018-02-22T22:44:57.330Z,35.50
2018-02-22T22:47:25.819Z,35.70
2018-02-22T22:49:54.215Z,36.10
2018-02-22T22:52:22.769Z,36.50
2018-02-22T22:54:50.843Z,36.50
2018-02-22T22:57:19.230Z,36.40
2018-02-22T22:59:47.604Z,36.40
2018-02-22T23:02:16.194Z,36.80
2018-02-22T23:04:45.186Z,36.40
2018-02-22T23:07:13.199Z,36.00
2018-02-22T23:09:41.456Z,35.80
2018-02-22T23:12:11.502Z,37.20
2018-02-22T23:14:40.139Z,36.20
2018-02-22T23:17:08.595Z,35.90
2018-02-22T23:19:37.030Z,36.80
2018-02-22T23:22:05.596Z,36.10
2018-02-22T23:24:33.692Z,35.90
2018-02-22T23:27:02.688Z,35.90
2018-02-22T23:29:30.826Z,36.50
2018-02-22T23:32:00.051Z,36.50
2018-02-22T23:34:33.652Z,36.60
2018-02-22T23:37:01.234Z,35.50
2018-02-22T23:39:29.629Z,35.50
2018-02-22T23:42:12.847Z,35.80
2018-02-22T23:44:40.596Z,35.80
2018-02-22T23:47:09.299Z,35.80
2018-02-22T23:49:37.847Z,36.00
2018-02-22T23:52:06.245Z,36.70
2018-02-22T23:54:33.847Z,36.00
2018-02-22T23:57:01.907Z,36.30
2018-02-22T23:59:30.266Z,36.50
